Barbers Point N A S, Hawaii
Current Conditions -  °F | °C
As of 6:53 AM on Sunday 23 Nov 2014 (Local Time) from PHJR Reporting Station
Clear Clear  
Wind Chill: 65°   Ceiling: Unl
Heat Index: 65°   Visibility: 10mi
Dew Point: 64°   Wind: 3mph
Humidity: 97%   Direction: 30°NNE
Pressure: 29.99"   Gusts: NA
Location:  21.319°N, 158.0749°W
Report Text: PHJR 231653Z 03003KT 10SM CLR 18/18 A2999 RMK AO2 SLP163 T01830178
Loading
Personal Weather Stations






























Interactive Weather Map New forecast layout! Learn more

10-Day Weather Forecast

Advertisements
Track Severe Weather on mobile